sensor_id;sensor_type;location;lat;lon;timestamp;pressure;altitude;pressure_sealevel;temperature;humidity
18850;BME280;4989;48.772;9.154;2023-04-01T00:03:04;96661.84;;;9.83;100.00
18850;BME280;4989;48.772;9.154;2023-04-01T00:08:07;96663.56;;;10.17;98.13
18850;BME280;4989;48.772;9.154;2023-04-01T00:13:12;96668.88;;;10.30;96.94
18850;BME280;4989;48.772;9.154;2023-04-01T00:18:15;96664.31;;;10.18;97.64
18850;BME280;4989;48.772;9.154;2023-04-01T00:23:19;96658.34;;;10.32;96.98
18850;BME280;4989;48.772;9.154;2023-04-01T00:28:28;96654.63;;;10.07;97.66
18850;BME280;4989;48.772;9.154;2023-04-01T00:33:30;96674.41;;;9.99;98.61
18850;BME280;4989;48.772;9.154;2023-04-01T00:38:34;96664.13;;;9.94;99.24
18850;BME280;4989;48.772;9.154;2023-04-01T00:43:36;96667.91;;;9.87;99.50
18850;BME280;4989;48.772;9.154;2023-04-01T00:48:42;96672.16;;;10.06;99.59
18850;BME280;4989;48.772;9.154;2023-04-01T00:53:48;96672.72;;;10.01;100.00
18850;BME280;4989;48.772;9.154;2023-04-01T00:58:57;96676.97;;;10.02;100.00
18850;BME280;4989;48.772;9.154;2023-04-01T01:04:03;96684.78;;;9.91;100.00
18850;BME280;4989;48.772;9.154;2023-04-01T01:15:06;96663.56;;;9.99;100.00
18850;BME280;4989;48.772;9.154;2023-04-01T01:25:52;96668.47;;;9.32;100.00
18850;BME280;4989;48.772;9.154;2023-04-01T01:36:31;96673.22;;;9.50;100.00
18850;BME280;4989;48.772;9.154;2023-04-01T01:41:41;96672.81;;;9.30;100.00
18850;BME280;4989;48.772;9.154;2023-04-01T01:46:45;96674.59;;;9.24;100.00
18850;BME280;4989;48.772;9.154;2023-04-01T01:51:50;96669.19;;;9.24;100.00
18850;BME280;4989;48.772;9.154;2023-04-01T01:56:59;96674.28;;;9.22;100.00
18850;BME280;4989;48.772;9.154;2023-04-01T02:02:07;96672.19;;;9.26;100.00
18850;BME280;4989;48.772;9.154;2023-04-01T02:07:16;96659.84;;;9.25;100.00
18850;BME280;4989;48.772;9.154;2023-04-01T02:12:22;96665.34;;;9.12;100.00
18850;BME280;4989;48.772;9.154;2023-04-01T02:17:29;96666.16;;;9.22;100.00
18850;BME280;4989;48.772;9.154;2023-04-01T02:22:35;96670.50;;;9.19;100.00
18850;BME280;4989;48.772;9.154;2023-04-01T02:27:40;96673.91;;;9.10;100.00
18850;BME280;4989;48.772;9.154;2023-04-01T02:32:45;96674.31;;;9.31;100.00
18850;BME280;4989;48.772;9.154;2023-04-01T02:37:49;96675.13;;;9.40;100.00
18850;BME280;4989;48.772;9.154;2023-04-01T02:42:53;96669.28;;;9.11;100.00
18850;BME280;4989;48.772;9.154;2023-04-01T02:47:56;96665.56;;;8.95;100.00
18850;BME280;4989;48.772;9.154;2023-04-01T02:52:58;96673.88;;;9.01;100.00
18850;BME280;4989;48.772;9.154;2023-04-01T02:58:01;96675.81;;;9.01;100.00
18850;BME280;4989;48.772;9.154;2023-04-01T03:03:04;96668.22;;;9.08;100.00
18850;BME280;4989;48.772;9.154;2023-04-01T03:08:07;96674.09;;;8.85;100.00
18850;BME280;4989;48.772;9.154;2023-04-01T03:13:10;96676.19;;;8.81;100.00
18850;BME280;4989;48.772;9.154;2023-04-01T03:18:13;96669.03;;;8.96;100.00
18850;BME280;4989;48.772;9.154;2023-04-01T03:23:15;96667.16;;;8.84;100.00
18850;BME280;4989;48.772;9.154;2023-04-01T03:28:21;96676.22;;;8.90;100.00
18850;BME280;4989;48.772;9.154;2023-04-01T03:33:24;96672.81;;;8.77;100.00
18850;BME280;4989;48.772;9.154;2023-04-01T03:38:26;96676.19;;;8.81;100.00
18850;BME280;4989;48.772;9.154;2023-04-01T03:43:29;96674.97;;;8.82;100.00
18850;BME280;4989;48.772;9.154;2023-04-01T03:48:32;96674.09;;;8.85;100.00
18850;BME280;4989;48.772;9.154;2023-04-01T03:53:35;96669.88;;;8.84;100.00
18850;BME280;4989;48.772;9.154;2023-04-01T03:58:40;96658.09;;;8.78;100.00
18850;BME280;4989;48.772;9.154;2023-04-01T04:03:44;96653.91;;;8.86;100.00
18850;BME280;4989;48.772;9.154;2023-04-01T04:08:48;96652.69;;;8.78;100.00
18850;BME280;4989;48.772;9.154;2023-04-01T04:13:51;96658.72;;;8.82;100.00
18850;BME280;4989;48.772;9.154;2023-04-01T04:18:55;96652.34;;;8.76;100.00
18850;BME280;4989;48.772;9.154;2023-04-01T04:24:02;96654.81;;;8.61;100.00
18850;BME280;4989;48.772;9.154;2023-04-01T04:29:25;96642.84;;;8.49;100.00
18850;BME280;4989;48.772;9.154;2023-04-01T04:34:28;96655.19;;;8.50;100.00
18850;BME280;4989;48.772;9.154;2023-04-01T04:39:30;96646.97;;;8.41;100.00
18850;BME280;4989;48.772;9.154;2023-04-01T04:44:34;96654.25;;;8.31;100.00
18850;BME280;4989;48.772;9.154;2023-04-01T04:49:36;96652.63;;;8.34;100.00
18850;BME280;4989;48.772;9.154;2023-04-01T04:54:43;96646.69;;;8.39;100.00
18850;BME280;4989;48.772;9.154;2023-04-01T04:59:45;96639.78;;;8.25;100.00
18850;BME280;4989;48.772;9.154;2023-04-01T05:04:54;96642.94;;;8.23;100.00
18850;BME280;4989;48.772;9.154;2023-04-01T05:09:56;96641.59;;;8.28;100.00
18850;BME280;4989;48.772;9.154;2023-04-01T05:14:59;96626.78;;;8.20;100.00
18850;BME280;4989;48.772;9.154;2023-04-01T05:20:03;96630.69;;;8.19;100.00
18850;BME280;4989;48.772;9.154;2023-04-01T05:25:06;96621.91;;;8.27;100.00
18850;BME280;4989;48.772;9.154;2023-04-01T05:30:10;96612.34;;;8.36;100.00
18850;BME280;4989;48.772;9.154;2023-04-01T05:35:27;96612.13;;;8.43;100.00
18850;BME280;4989;48.772;9.154;2023-04-01T05:40:30;96623.19;;;8.58;100.00
18850;BME280;4989;48.772;9.154;2023-04-01T05:45:33;96606.75;;;8.74;100.00
18850;BME280;4989;48.772;9.154;2023-04-01T05:50:36;96608.75;;;8.83;100.00
18850;BME280;4989;48.772;9.154;2023-04-01T05:55:40;96607.16;;;8.94;100.00
18850;BME280;4989;48.772;9.154;2023-04-01T06:00:43;96614.28;;;9.10;100.00
18850;BME280;4989;48.772;9.154;2023-04-01T06:05:47;96602.63;;;9.32;100.00
18850;BME280;4989;48.772;9.154;2023-04-01T06:11:01;96594.75;;;9.15;100.00
18850;BME280;4989;48.772;9.154;2023-04-01T06:59:30;96594.00;;;9.92;97.07
18850;BME280;4989;48.772;9.154;2023-04-01T07:04:40;96604.56;;;9.81;97.67
18850;BME280;4989;48.772;9.154;2023-04-01T07:09:52;96606.66;;;9.77;96.91
18850;BME280;4989;48.772;9.154;2023-04-01T07:15:42;96597.03;;;9.94;99.33
18850;BME280;4989;48.772;9.154;2023-04-01T07:20:47;96608.19;;;9.87;100.00
18850;BME280;4989;48.772;9.154;2023-04-01T07:26:14;96616.94;;;9.82;100.00
18850;BME280;4989;48.772;9.154;2023-04-01T07:36:55;96627.50;;;9.98;100.00
18850;BME280;4989;48.772;9.154;2023-04-01T07:42:20;96629.31;;;10.01;99.11
18850;BME280;4989;48.772;9.154;2023-04-01T07:47:39;96636.22;;;9.84;98.35
18850;BME280;4989;48.772;9.154;2023-04-01T08:08:58;96630.56;;;10.28;97.33
18850;BME280;4989;48.772;9.154;2023-04-01T08:25:48;96636.44;;;10.36;98.74
18850;BME280;4989;48.772;9.154;2023-04-01T08:31:01;96636.84;;;10.06;100.00
18850;BME280;4989;48.772;9.154;2023-04-01T08:36:23;96635.81;;;10.41;100.00
18850;BME280;4989;48.772;9.154;2023-04-01T08:42:07;96652.88;;;10.23;100.00
18850;BME280;4989;48.772;9.154;2023-04-01T08:47:39;96652.53;;;9.93;100.00
18850;BME280;4989;48.772;9.154;2023-04-01T08:52:50;96646.16;;;9.69;100.00
18850;BME280;4989;48.772;9.154;2023-04-01T09:14:07;96636.84;;;9.97;100.00
18850;BME280;4989;48.772;9.154;2023-04-01T09:19:41;96631.19;;;10.32;100.00
18850;BME280;4989;48.772;9.154;2023-04-01T09:30:31;96641.38;;;10.83;100.00
18850;BME280;4989;48.772;9.154;2023-04-01T09:35:48;96653.25;;;11.46;97.01
18850;BME280;4989;48.772;9.154;2023-04-01T09:40:58;96651.50;;;10.83;100.00
18850;BME280;4989;48.772;9.154;2023-04-01T10:36:21;96679.53;;;12.16;81.06
18850;BME280;4989;48.772;9.154;2023-04-01T10:41:46;96690.75;;;11.42;82.76
18850;BME280;4989;48.772;9.154;2023-04-01T10:58:17;96677.84;;;11.19;85.60
18850;BME280;4989;48.772;9.154;2023-04-01T11:20:56;96706.03;;;11.40;81.43
18850;BME280;4989;48.772;9.154;2023-04-01T11:48:33;96700.84;;;11.94;77.42
18850;BME280;4989;48.772;9.154;2023-04-01T11:53:58;96713.25;;;11.95;78.04
18850;BME280;4989;48.772;9.154;2023-04-01T12:10:39;96722.78;;;11.57;83.08
18850;BME280;4989;48.772;9.154;2023-04-01T12:21:37;96734.78;;;11.83;82.35
18850;BME280;4989;48.772;9.154;2023-04-01T12:49:22;96728.34;;;12.05;77.62
18850;BME280;4989;48.772;9.154;2023-04-01T13:16:24;96749.28;;;11.89;77.93
18850;BME280;4989;48.772;9.154;2023-04-01T13:27:26;96754.78;;;12.13;77.42
18850;BME280;4989;48.772;9.154;2023-04-01T13:33:01;96753.56;;;12.14;76.40
18850;BME280;4989;48.772;9.154;2023-04-01T13:38:31;96761.59;;;12.09;76.39
18850;BME280;4989;48.772;9.154;2023-04-01T13:43:47;96761.84;;;11.87;77.97
18850;BME280;4989;48.772;9.154;2023-04-01T13:49:31;96775.59;;;11.93;77.16
18850;BME280;4989;48.772;9.154;2023-04-01T14:38:47;96787.00;;;12.63;79.10
18850;BME280;4989;48.772;9.154;2023-04-01T14:44:11;96789.03;;;12.29;82.19
18850;BME280;4989;48.772;9.154;2023-04-01T14:54:37;96789.13;;;12.11;79.64
18850;BME280;4989;48.772;9.154;2023-04-01T14:59:49;96792.88;;;12.23;79.65
18850;BME280;4989;48.772;9.154;2023-04-01T15:10:58;96791.47;;;12.27;76.77
18850;BME280;4989;48.772;9.154;2023-04-01T16:03:53;96837.00;;;11.94;79.06
18850;BME280;4989;48.772;9.154;2023-04-01T16:09:17;96847.00;;;11.78;79.58
18850;BME280;4989;48.772;9.154;2023-04-01T16:36:46;96858.81;;;11.57;80.49
18850;BME280;4989;48.772;9.154;2023-04-01T16:47:23;96864.03;;;12.06;77.86
18850;BME280;4989;48.772;9.154;2023-04-01T16:52:47;96869.66;;;11.94;79.01
18850;BME280;4989;48.772;9.154;2023-04-01T16:57:56;96872.38;;;11.84;80.45
18850;BME280;4989;48.772;9.154;2023-04-01T17:03:40;96874.66;;;11.86;80.76
18850;BME280;4989;48.772;9.154;2023-04-01T17:25:13;96876.34;;;11.46;82.76
18850;BME280;4989;48.772;9.154;2023-04-01T17:30:24;96893.91;;;11.55;82.31
18850;BME280;4989;48.772;9.154;2023-04-01T17:35:35;96900.25;;;11.52;83.52
18850;BME280;4989;48.772;9.154;2023-04-01T18:25:50;96974.03;;;11.63;93.00
18850;BME280;4989;48.772;9.154;2023-04-01T18:46:49;96981.81;;;10.34;99.40
18850;BME280;4989;48.772;9.154;2023-04-01T18:51:59;96995.88;;;10.20;97.05
18850;BME280;4989;48.772;9.154;2023-04-01T18:57:12;97002.75;;;10.12;95.92
18850;BME280;4989;48.772;9.154;2023-04-01T19:13:04;97011.06;;;9.95;93.81
18850;BME280;4989;48.772;9.154;2023-04-01T19:18:38;97013.25;;;10.00;94.13
18850;BME280;4989;48.772;9.154;2023-04-01T19:30:10;97007.81;;;10.00;93.47
18850;BME280;4989;48.772;9.154;2023-04-01T19:40:55;97006.16;;;9.81;94.98
18850;BME280;4989;48.772;9.154;2023-04-01T19:46:36;97017.03;;;9.81;96.06
18850;BME280;4989;48.772;9.154;2023-04-01T20:07:36;97044.31;;;9.99;93.82
18850;BME280;4989;48.772;9.154;2023-04-01T20:12:52;97049.06;;;9.95;94.64
18850;BME280;4989;48.772;9.154;2023-04-01T20:29:10;97064.31;;;9.80;96.45
18850;BME280;4989;48.772;9.154;2023-04-01T20:56:01;97087.69;;;9.77;96.85
18850;BME280;4989;48.772;9.154;2023-04-01T21:01:11;97091.38;;;9.83;95.96
18850;BME280;4989;48.772;9.154;2023-04-01T21:06:49;97081.47;;;9.77;96.99
18850;BME280;4989;48.772;9.154;2023-04-01T21:12:05;97093.88;;;9.78;98.10
18850;BME280;4989;48.772;9.154;2023-04-01T21:39:33;97106.13;;;9.82;98.57
18850;BME280;4989;48.772;9.154;2023-04-01T22:06:47;97133.94;;;9.61;96.21
18850;BME280;4989;48.772;9.154;2023-04-01T22:12:04;97127.22;;;9.66;95.38
18850;BME280;4989;48.772;9.154;2023-04-01T22:17:43;97129.28;;;9.49;95.31
18850;BME280;4989;48.772;9.154;2023-04-01T22:28:07;97137.31;;;9.52;94.22
18850;BME280;4989;48.772;9.154;2023-04-01T22:44:20;97151.63;;;9.53;93.56
18850;BME280;4989;48.772;9.154;2023-04-01T22:54:56;97150.44;;;9.54;93.58
18850;BME280;4989;48.772;9.154;2023-04-01T23:05:36;97154.00;;;9.63;93.26
18850;BME280;4989;48.772;9.154;2023-04-01T23:11:00;97167.34;;;9.58;93.16
18850;BME280;4989;48.772;9.154;2023-04-01T23:16:06;97170.72;;;9.49;94.10
18850;BME280;4989;48.772;9.154;2023-04-01T23:21:38;97174.41;;;9.30;95.81
18850;BME280;4989;48.772;9.154;2023-04-01T23:26:50;97174.19;;;9.37;95.59
18850;BME280;4989;48.772;9.154;2023-04-01T23:32:02;97185.47;;;9.48;94.53
18850;BME280;4989;48.772;9.154;2023-04-01T23:37:10;97191.66;;;9.49;94.57
18850;BME280;4989;48.772;9.154;2023-04-01T23:42:27;97198.41;;;9.44;95.52
18850;BME280;4989;48.772;9.154;2023-04-01T23:47:33;97200.56;;;9.36;95.62
18850;BME280;4989;48.772;9.154;2023-04-01T23:52:43;97205.97;;;9.24;96.07
18850;BME280;4989;48.772;9.154;2023-04-01T23:58:24;97202.06;;;9.25;96.59
